sensor_id;sensor_type;location;lat;lon;timestamp;P1;durP1;ratioP1;P2;durP2;ratioP2
29092;SDS011;16167;48.768;14.984;2023-02-14T00:01:26;19.15;;;8.85;;
29092;SDS011;16167;48.768;14.984;2023-02-14T00:03:55;15.27;;;8.98;;
29092;SDS011;16167;48.768;14.984;2023-02-14T00:06:26;18.75;;;9.90;;
29092;SDS011;16167;48.768;14.984;2023-02-14T00:08:55;15.85;;;9.38;;
29092;SDS011;16167;48.768;14.984;2023-02-14T00:11:23;16.58;;;8.43;;
29092;SDS011;16167;48.768;14.984;2023-02-14T00:13:51;16.20;;;9.23;;
29092;SDS011;16167;48.768;14.984;2023-02-14T00:16:36;18.58;;;9.90;;
29092;SDS011;16167;48.768;14.984;2023-02-14T00:19:06;18.98;;;11.23;;
29092;SDS011;16167;48.768;14.984;2023-02-14T00:21:35;18.02;;;10.40;;
29092;SDS011;16167;48.768;14.984;2023-02-14T00:26:33;18.25;;;10.52;;
29092;SDS011;16167;48.768;14.984;2023-02-14T00:29:03;19.70;;;10.48;;
29092;SDS011;16167;48.768;14.984;2023-02-14T00:31:32;23.33;;;11.53;;
29092;SDS011;16167;48.768;14.984;2023-02-14T00:34:01;19.95;;;10.15;;
29092;SDS011;16167;48.768;14.984;2023-02-14T00:36:31;17.00;;;9.65;;
29092;SDS011;16167;48.768;14.984;2023-02-14T00:39:00;17.42;;;9.07;;
29092;SDS011;16167;48.768;14.984;2023-02-14T00:41:29;14.45;;;7.95;;
29092;SDS011;16167;48.768;14.984;2023-02-14T00:43:57;14.52;;;9.02;;
29092;SDS011;16167;48.768;14.984;2023-02-14T00:46:25;17.02;;;9.52;;
29092;SDS011;16167;48.768;14.984;2023-02-14T00:48:54;17.60;;;9.40;;
29092;SDS011;16167;48.768;14.984;2023-02-14T00:51:22;16.90;;;9.43;;
29092;SDS011;16167;48.768;14.984;2023-02-14T00:53:52;16.85;;;10.00;;
29092;SDS011;16167;48.768;14.984;2023-02-14T00:58:48;15.55;;;8.77;;
29092;SDS011;16167;48.768;14.984;2023-02-14T01:01:16;16.55;;;9.13;;
29092;SDS011;16167;48.768;14.984;2023-02-14T01:03:45;19.10;;;10.00;;
29092;SDS011;16167;48.768;14.984;2023-02-14T01:06:14;17.52;;;10.50;;
29092;SDS011;16167;48.768;14.984;2023-02-14T01:08:42;12.83;;;7.60;;
29092;SDS011;16167;48.768;14.984;2023-02-14T01:11:12;16.67;;;9.50;;
29092;SDS011;16167;48.768;14.984;2023-02-14T01:13:42;16.02;;;8.95;;
29092;SDS011;16167;48.768;14.984;2023-02-14T01:16:11;18.45;;;10.27;;
29092;SDS011;16167;48.768;14.984;2023-02-14T01:18:41;18.23;;;9.48;;
29092;SDS011;16167;48.768;14.984;2023-02-14T01:21:11;17.92;;;9.75;;
29092;SDS011;16167;48.768;14.984;2023-02-14T01:23:40;14.57;;;8.73;;
29092;SDS011;16167;48.768;14.984;2023-02-14T01:26:09;19.98;;;10.40;;
29092;SDS011;16167;48.768;14.984;2023-02-14T01:28:39;20.90;;;11.13;;
29092;SDS011;16167;48.768;14.984;2023-02-14T01:31:09;19.85;;;10.45;;
29092;SDS011;16167;48.768;14.984;2023-02-14T01:33:39;18.02;;;9.68;;
29092;SDS011;16167;48.768;14.984;2023-02-14T01:36:14;17.35;;;9.93;;
29092;SDS011;16167;48.768;14.984;2023-02-14T01:38:43;19.13;;;10.23;;
29092;SDS011;16167;48.768;14.984;2023-02-14T01:41:12;13.37;;;7.73;;
29092;SDS011;16167;48.768;14.984;2023-02-14T01:43:52;22.25;;;11.32;;
29092;SDS011;16167;48.768;14.984;2023-02-14T01:46:22;16.90;;;9.90;;
29092;SDS011;16167;48.768;14.984;2023-02-14T01:48:53;16.13;;;9.40;;
29092;SDS011;16167;48.768;14.984;2023-02-14T01:51:23;14.82;;;8.60;;
29092;SDS011;16167;48.768;14.984;2023-02-14T01:53:52;17.02;;;8.95;;
29092;SDS011;16167;48.768;14.984;2023-02-14T01:56:22;14.98;;;8.50;;
29092;SDS011;16167;48.768;14.984;2023-02-14T01:58:56;16.98;;;8.32;;
29092;SDS011;16167;48.768;14.984;2023-02-14T02:01:26;15.60;;;8.00;;
29092;SDS011;16167;48.768;14.984;2023-02-14T02:03:56;14.43;;;7.88;;
29092;SDS011;16167;48.768;14.984;2023-02-14T02:06:29;14.45;;;7.75;;
29092;SDS011;16167;48.768;14.984;2023-02-14T02:09:02;13.02;;;7.65;;
29092;SDS011;16167;48.768;14.984;2023-02-14T02:11:35;16.55;;;7.82;;
29092;SDS011;16167;48.768;14.984;2023-02-14T02:14:05;12.53;;;8.50;;
29092;SDS011;16167;48.768;14.984;2023-02-14T02:16:50;13.63;;;7.55;;
29092;SDS011;16167;48.768;14.984;2023-02-14T02:19:50;13.90;;;7.25;;
29092;SDS011;16167;48.768;14.984;2023-02-14T02:25:52;15.23;;;7.40;;
29092;SDS011;16167;48.768;14.984;2023-02-14T02:28:53;11.48;;;7.07;;
29092;SDS011;16167;48.768;14.984;2023-02-14T02:31:45;14.05;;;8.07;;
29092;SDS011;16167;48.768;14.984;2023-02-14T02:37:36;15.90;;;8.50;;
29092;SDS011;16167;48.768;14.984;2023-02-14T02:40:15;15.65;;;9.10;;
29092;SDS011;16167;48.768;14.984;2023-02-14T02:43:00;14.38;;;8.05;;
29092;SDS011;16167;48.768;14.984;2023-02-14T02:45:39;16.65;;;8.75;;
29092;SDS011;16167;48.768;14.984;2023-02-14T02:48:29;18.10;;;10.18;;
29092;SDS011;16167;48.768;14.984;2023-02-14T02:51:04;18.95;;;9.85;;
29092;SDS011;16167;48.768;14.984;2023-02-14T02:53:56;19.77;;;11.32;;
29092;SDS011;16167;48.768;14.984;2023-02-14T02:56:29;16.60;;;9.85;;
29092;SDS011;16167;48.768;14.984;2023-02-14T02:59:16;15.80;;;8.93;;
29092;SDS011;16167;48.768;14.984;2023-02-14T03:01:49;15.88;;;9.10;;
29092;SDS011;16167;48.768;14.984;2023-02-14T03:04:21;16.80;;;9.98;;
29092;SDS011;16167;48.768;14.984;2023-02-14T03:07:08;14.38;;;8.10;;
29092;SDS011;16167;48.768;14.984;2023-02-14T03:09:52;14.15;;;8.77;;
29092;SDS011;16167;48.768;14.984;2023-02-14T03:12:28;16.90;;;9.88;;
29092;SDS011;16167;48.768;14.984;2023-02-14T03:15:20;15.43;;;9.23;;
29092;SDS011;16167;48.768;14.984;2023-02-14T03:17:57;13.00;;;8.27;;
29092;SDS011;16167;48.768;14.984;2023-02-14T03:20:52;15.43;;;9.05;;
29092;SDS011;16167;48.768;14.984;2023-02-14T03:23:22;15.00;;;8.88;;
29092;SDS011;16167;48.768;14.984;2023-02-14T03:25:59;14.93;;;9.30;;
29092;SDS011;16167;48.768;14.984;2023-02-14T03:28:37;17.92;;;9.90;;
29092;SDS011;16167;48.768;14.984;2023-02-14T03:31:13;14.55;;;8.93;;
29092;SDS011;16167;48.768;14.984;2023-02-14T03:33:47;16.30;;;10.02;;
29092;SDS011;16167;48.768;14.984;2023-02-14T03:36:23;21.00;;;10.93;;
29092;SDS011;16167;48.768;14.984;2023-02-14T03:38:57;21.92;;;12.63;;
29092;SDS011;16167;48.768;14.984;2023-02-14T03:41:34;21.30;;;11.23;;
29092;SDS011;16167;48.768;14.984;2023-02-14T03:44:07;22.65;;;11.75;;
29092;SDS011;16167;48.768;14.984;2023-02-14T03:46:38;22.08;;;11.48;;
29092;SDS011;16167;48.768;14.984;2023-02-14T03:49:11;20.25;;;10.85;;
29092;SDS011;16167;48.768;14.984;2023-02-14T03:51:44;18.58;;;10.32;;
29092;SDS011;16167;48.768;14.984;2023-02-14T03:54:15;22.70;;;11.50;;
29092;SDS011;16167;48.768;14.984;2023-02-14T03:56:48;21.15;;;11.75;;
29092;SDS011;16167;48.768;14.984;2023-02-14T03:59:19;22.25;;;12.98;;
29092;SDS011;16167;48.768;14.984;2023-02-14T04:01:50;22.63;;;12.60;;
29092;SDS011;16167;48.768;14.984;2023-02-14T04:04:23;24.83;;;12.48;;
29092;SDS011;16167;48.768;14.984;2023-02-14T04:06:53;19.38;;;12.07;;
29092;SDS011;16167;48.768;14.984;2023-02-14T04:09:21;19.50;;;12.05;;
29092;SDS011;16167;48.768;14.984;2023-02-14T04:11:51;22.70;;;13.07;;
29092;SDS011;16167;48.768;14.984;2023-02-14T04:16:47;18.73;;;10.82;;
29092;SDS011;16167;48.768;14.984;2023-02-14T04:19:33;22.00;;;13.23;;
29092;SDS011;16167;48.768;14.984;2023-02-14T04:22:01;21.15;;;12.88;;
29092;SDS011;16167;48.768;14.984;2023-02-14T04:24:29;21.08;;;12.60;;
29092;SDS011;16167;48.768;14.984;2023-02-14T04:26:58;19.80;;;11.77;;
29092;SDS011;16167;48.768;14.984;2023-02-14T04:29:36;18.33;;;10.88;;
29092;SDS011;16167;48.768;14.984;2023-02-14T04:32:06;17.55;;;11.45;;
29092;SDS011;16167;48.768;14.984;2023-02-14T04:37:02;16.83;;;10.25;;
29092;SDS011;16167;48.768;14.984;2023-02-14T04:39:31;16.42;;;10.15;;
29092;SDS011;16167;48.768;14.984;2023-02-14T04:42:01;12.43;;;7.65;;
29092;SDS011;16167;48.768;14.984;2023-02-14T04:44:29;26.23;;;13.75;;
29092;SDS011;16167;48.768;14.984;2023-02-14T04:46:59;23.45;;;13.10;;
29092;SDS011;16167;48.768;14.984;2023-02-14T04:49:27;26.65;;;13.07;;
29092;SDS011;16167;48.768;14.984;2023-02-14T04:51:55;26.58;;;14.15;;
29092;SDS011;16167;48.768;14.984;2023-02-14T04:54:24;22.40;;;12.80;;
29092;SDS011;16167;48.768;14.984;2023-02-14T04:56:52;20.58;;;12.10;;
29092;SDS011;16167;48.768;14.984;2023-02-14T04:59:21;18.35;;;10.70;;
29092;SDS011;16167;48.768;14.984;2023-02-14T05:01:50;18.20;;;11.10;;
29092;SDS011;16167;48.768;14.984;2023-02-14T05:04:19;18.55;;;10.98;;
29092;SDS011;16167;48.768;14.984;2023-02-14T05:06:48;15.32;;;9.55;;
29092;SDS011;16167;48.768;14.984;2023-02-14T05:09:16;20.15;;;10.85;;
29092;SDS011;16167;48.768;14.984;2023-02-14T05:11:44;19.70;;;11.40;;
29092;SDS011;16167;48.768;14.984;2023-02-14T05:14:12;20.98;;;12.23;;
29092;SDS011;16167;48.768;14.984;2023-02-14T05:16:42;21.27;;;12.02;;
29092;SDS011;16167;48.768;14.984;2023-02-14T05:21:38;17.95;;;10.95;;
29092;SDS011;16167;48.768;14.984;2023-02-14T05:24:06;17.00;;;10.50;;
29092;SDS011;16167;48.768;14.984;2023-02-14T05:26:34;18.65;;;10.43;;
29092;SDS011;16167;48.768;14.984;2023-02-14T05:29:02;19.90;;;11.43;;
29092;SDS011;16167;48.768;14.984;2023-02-14T05:31:31;18.67;;;11.23;;
29092;SDS011;16167;48.768;14.984;2023-02-14T05:34:00;18.30;;;11.35;;
29092;SDS011;16167;48.768;14.984;2023-02-14T05:38:56;20.40;;;10.70;;
29092;SDS011;16167;48.768;14.984;2023-02-14T05:41:24;22.17;;;12.55;;
29092;SDS011;16167;48.768;14.984;2023-02-14T05:43:52;27.00;;;14.77;;
29092;SDS011;16167;48.768;14.984;2023-02-14T05:46:21;29.45;;;14.65;;
29092;SDS011;16167;48.768;14.984;2023-02-14T05:48:49;38.25;;;18.45;;
29092;SDS011;16167;48.768;14.984;2023-02-14T05:51:18;47.85;;;21.77;;
29092;SDS011;16167;48.768;14.984;2023-02-14T05:53:46;44.55;;;21.20;;
29092;SDS011;16167;48.768;14.984;2023-02-14T05:56:14;45.53;;;21.35;;
29092;SDS011;16167;48.768;14.984;2023-02-14T05:58:43;32.10;;;16.60;;
29092;SDS011;16167;48.768;14.984;2023-02-14T06:01:11;24.30;;;12.88;;
29092;SDS011;16167;48.768;14.984;2023-02-14T06:03:39;21.85;;;12.98;;
29092;SDS011;16167;48.768;14.984;2023-02-14T06:06:07;25.02;;;13.65;;
29092;SDS011;16167;48.768;14.984;2023-02-14T06:08:36;26.42;;;13.45;;
29092;SDS011;16167;48.768;14.984;2023-02-14T06:11:04;26.30;;;13.55;;
29092;SDS011;16167;48.768;14.984;2023-02-14T06:13:32;26.77;;;14.48;;
29092;SDS011;16167;48.768;14.984;2023-02-14T06:16:01;27.52;;;14.18;;
29092;SDS011;16167;48.768;14.984;2023-02-14T06:18:30;23.02;;;14.18;;
29092;SDS011;16167;48.768;14.984;2023-02-14T06:20:58;28.13;;;16.20;;
29092;SDS011;16167;48.768;14.984;2023-02-14T06:23:26;24.90;;;12.88;;
29092;SDS011;16167;48.768;14.984;2023-02-14T06:25:56;31.08;;;16.25;;
29092;SDS011;16167;48.768;14.984;2023-02-14T06:30:52;27.73;;;15.40;;
29092;SDS011;16167;48.768;14.984;2023-02-14T06:33:20;26.95;;;15.02;;
29092;SDS011;16167;48.768;14.984;2023-02-14T06:35:48;28.88;;;14.90;;
29092;SDS011;16167;48.768;14.984;2023-02-14T06:38:16;26.80;;;15.18;;
29092;SDS011;16167;48.768;14.984;2023-02-14T06:40:44;26.88;;;15.10;;
29092;SDS011;16167;48.768;14.984;2023-02-14T06:43:13;31.48;;;15.70;;
29092;SDS011;16167;48.768;14.984;2023-02-14T06:45:41;23.08;;;13.90;;
29092;SDS011;16167;48.768;14.984;2023-02-14T06:48:10;27.25;;;14.75;;
29092;SDS011;16167;48.768;14.984;2023-02-14T06:50:38;28.23;;;15.60;;
29092;SDS011;16167;48.768;14.984;2023-02-14T06:53:06;35.10;;;17.95;;
29092;SDS011;16167;48.768;14.984;2023-02-14T06:55:34;31.17;;;16.65;;
29092;SDS011;16167;48.768;14.984;2023-02-14T06:58:02;33.65;;;17.52;;
29092;SDS011;16167;48.768;14.984;2023-02-14T07:00:31;34.50;;;18.92;;
29092;SDS011;16167;48.768;14.984;2023-02-14T07:03:00;36.90;;;18.92;;
29092;SDS011;16167;48.768;14.984;2023-02-14T07:05:28;32.95;;;18.25;;
29092;SDS011;16167;48.768;14.984;2023-02-14T07:07:57;40.47;;;20.70;;
29092;SDS011;16167;48.768;14.984;2023-02-14T07:10:25;38.60;;;20.13;;
29092;SDS011;16167;48.768;14.984;2023-02-14T07:12:53;35.03;;;18.80;;
29092;SDS011;16167;48.768;14.984;2023-02-14T07:15:21;36.33;;;18.55;;
29092;SDS011;16167;48.768;14.984;2023-02-14T07:17:50;36.75;;;20.33;;
29092;SDS011;16167;48.768;14.984;2023-02-14T07:20:19;35.15;;;20.00;;
29092;SDS011;16167;48.768;14.984;2023-02-14T07:22:47;38.50;;;20.50;;
29092;SDS011;16167;48.768;14.984;2023-02-14T07:25:15;38.65;;;20.15;;
29092;SDS011;16167;48.768;14.984;2023-02-14T07:27:43;38.92;;;20.58;;
29092;SDS011;16167;48.768;14.984;2023-02-14T07:30:12;41.35;;;19.95;;
29092;SDS011;16167;48.768;14.984;2023-02-14T07:32:41;50.67;;;22.15;;
29092;SDS011;16167;48.768;14.984;2023-02-14T07:35:10;46.75;;;21.55;;
29092;SDS011;16167;48.768;14.984;2023-02-14T07:37:40;38.10;;;19.70;;
29092;SDS011;16167;48.768;14.984;2023-02-14T07:40:09;42.88;;;20.13;;
29092;SDS011;16167;48.768;14.984;2023-02-14T07:42:40;41.60;;;19.88;;
29092;SDS011;16167;48.768;14.984;2023-02-14T07:45:09;42.40;;;21.75;;
29092;SDS011;16167;48.768;14.984;2023-02-14T07:47:48;44.33;;;22.58;;
29092;SDS011;16167;48.768;14.984;2023-02-14T07:55:14;41.78;;;20.52;;
29092;SDS011;16167;48.768;14.984;2023-02-14T07:57:45;47.13;;;23.50;;
29092;SDS011;16167;48.768;14.984;2023-02-14T08:00:15;49.22;;;24.92;;
29092;SDS011;16167;48.768;14.984;2023-02-14T08:02:44;49.30;;;23.17;;
29092;SDS011;16167;48.768;14.984;2023-02-14T08:05:14;48.70;;;23.20;;
29092;SDS011;16167;48.768;14.984;2023-02-14T08:07:43;53.40;;;24.25;;
29092;SDS011;16167;48.768;14.984;2023-02-14T08:10:12;45.85;;;22.05;;
29092;SDS011;16167;48.768;14.984;2023-02-14T08:12:40;57.30;;;25.08;;
29092;SDS011;16167;48.768;14.984;2023-02-14T08:15:28;47.15;;;23.60;;
29092;SDS011;16167;48.768;14.984;2023-02-14T08:18:15;48.40;;;23.08;;
29092;SDS011;16167;48.768;14.984;2023-02-14T08:20:44;45.50;;;21.58;;
29092;SDS011;16167;48.768;14.984;2023-02-14T08:23:15;44.15;;;20.75;;
29092;SDS011;16167;48.768;14.984;2023-02-14T08:25:44;44.83;;;19.45;;
29092;SDS011;16167;48.768;14.984;2023-02-14T08:28:12;47.30;;;22.40;;
29092;SDS011;16167;48.768;14.984;2023-02-14T08:30:41;44.83;;;22.05;;
29092;SDS011;16167;48.768;14.984;2023-02-14T08:33:09;28.10;;;14.60;;
29092;SDS011;16167;48.768;14.984;2023-02-14T08:35:38;42.42;;;19.67;;
29092;SDS011;16167;48.768;14.984;2023-02-14T08:38:06;45.15;;;21.27;;
29092;SDS011;16167;48.768;14.984;2023-02-14T08:40:35;44.05;;;21.63;;
29092;SDS011;16167;48.768;14.984;2023-02-14T08:45:32;43.55;;;19.90;;
29092;SDS011;16167;48.768;14.984;2023-02-14T08:48:00;41.75;;;20.17;;
29092;SDS011;16167;48.768;14.984;2023-02-14T08:50:30;45.95;;;22.48;;
29092;SDS011;16167;48.768;14.984;2023-02-14T08:52:58;36.22;;;17.95;;
29092;SDS011;16167;48.768;14.984;2023-02-14T08:55:26;41.40;;;19.15;;
29092;SDS011;16167;48.768;14.984;2023-02-14T08:57:56;45.90;;;21.38;;
29092;SDS011;16167;48.768;14.984;2023-02-14T09:00:26;39.50;;;20.20;;
29092;SDS011;16167;48.768;14.984;2023-02-14T09:02:54;42.73;;;20.17;;
29092;SDS011;16167;48.768;14.984;2023-02-14T09:05:22;40.30;;;19.33;;
29092;SDS011;16167;48.768;14.984;2023-02-14T09:07:51;41.47;;;21.10;;
29092;SDS011;16167;48.768;14.984;2023-02-14T09:10:21;40.22;;;20.17;;
29092;SDS011;16167;48.768;14.984;2023-02-14T09:12:50;41.63;;;22.27;;
29092;SDS011;16167;48.768;14.984;2023-02-14T09:15:20;40.13;;;21.17;;
29092;SDS011;16167;48.768;14.984;2023-02-14T09:17:48;38.97;;;20.20;;
29092;SDS011;16167;48.768;14.984;2023-02-14T09:20:16;37.03;;;21.65;;
29092;SDS011;16167;48.768;14.984;2023-02-14T09:22:44;37.08;;;18.90;;
29092;SDS011;16167;48.768;14.984;2023-02-14T09:25:14;35.33;;;18.45;;
29092;SDS011;16167;48.768;14.984;2023-02-14T09:27:42;34.42;;;16.65;;
29092;SDS011;16167;48.768;14.984;2023-02-14T09:30:11;33.33;;;16.13;;
29092;SDS011;16167;48.768;14.984;2023-02-14T09:32:41;26.23;;;13.70;;
29092;SDS011;16167;48.768;14.984;2023-02-14T09:35:09;29.83;;;15.82;;
29092;SDS011;16167;48.768;14.984;2023-02-14T09:37:55;25.85;;;13.82;;
29092;SDS011;16167;48.768;14.984;2023-02-14T09:40:23;24.73;;;14.02;;
29092;SDS011;16167;48.768;14.984;2023-02-14T09:42:57;28.35;;;14.05;;
29092;SDS011;16167;48.768;14.984;2023-02-14T09:45:29;27.98;;;13.80;;
29092;SDS011;16167;48.768;14.984;2023-02-14T09:50:31;25.20;;;12.25;;
29092;SDS011;16167;48.768;14.984;2023-02-14T09:53:03;22.63;;;12.20;;
29092;SDS011;16167;48.768;14.984;2023-02-14T09:55:39;24.63;;;13.13;;
29092;SDS011;16167;48.768;14.984;2023-02-14T09:58:14;25.45;;;13.45;;
29092;SDS011;16167;48.768;14.984;2023-02-14T10:00:45;27.42;;;13.90;;
29092;SDS011;16167;48.768;14.984;2023-02-14T10:06:35;20.38;;;11.48;;
29092;SDS011;16167;48.768;14.984;2023-02-14T10:09:19;24.35;;;12.95;;
29092;SDS011;16167;48.768;14.984;2023-02-14T10:11:57;23.40;;;13.52;;
29092;SDS011;16167;48.768;14.984;2023-02-14T10:14:28;25.55;;;13.20;;
29092;SDS011;16167;48.768;14.984;2023-02-14T10:17:00;23.60;;;12.25;;
29092;SDS011;16167;48.768;14.984;2023-02-14T10:19:35;18.40;;;11.23;;
29092;SDS011;16167;48.768;14.984;2023-02-14T10:22:08;22.67;;;12.38;;
29092;SDS011;16167;48.768;14.984;2023-02-14T10:24:42;22.88;;;11.80;;
29092;SDS011;16167;48.768;14.984;2023-02-14T10:27:16;18.75;;;11.27;;
29092;SDS011;16167;48.768;14.984;2023-02-14T10:29:53;21.60;;;11.88;;
29092;SDS011;16167;48.768;14.984;2023-02-14T10:32:23;19.27;;;12.02;;
29092;SDS011;16167;48.768;14.984;2023-02-14T10:34:57;24.80;;;13.30;;
29092;SDS011;16167;48.768;14.984;2023-02-14T10:37:32;23.30;;;13.77;;
29092;SDS011;16167;48.768;14.984;2023-02-14T10:40:24;22.05;;;13.43;;
29092;SDS011;16167;48.768;14.984;2023-02-14T10:45:35;19.70;;;10.63;;
29092;SDS011;16167;48.768;14.984;2023-02-14T10:48:10;20.48;;;11.18;;
29092;SDS011;16167;48.768;14.984;2023-02-14T10:50:49;22.20;;;12.75;;
29092;SDS011;16167;48.768;14.984;2023-02-14T10:53:24;19.25;;;10.57;;
29092;SDS011;16167;48.768;14.984;2023-02-14T10:56:00;21.13;;;11.70;;
29092;SDS011;16167;48.768;14.984;2023-02-14T10:58:33;25.80;;;13.68;;
29092;SDS011;16167;48.768;14.984;2023-02-14T11:01:04;25.58;;;15.65;;
29092;SDS011;16167;48.768;14.984;2023-02-14T11:03:37;25.40;;;14.98;;
29092;SDS011;16167;48.768;14.984;2023-02-14T11:06:10;28.70;;;15.55;;
29092;SDS011;16167;48.768;14.984;2023-02-14T11:11:10;26.58;;;14.80;;
29092;SDS011;16167;48.768;14.984;2023-02-14T11:13:44;26.02;;;14.27;;
29092;SDS011;16167;48.768;14.984;2023-02-14T11:16:17;23.20;;;13.85;;
29092;SDS011;16167;48.768;14.984;2023-02-14T11:19:06;28.98;;;14.43;;
29092;SDS011;16167;48.768;14.984;2023-02-14T11:21:38;22.50;;;13.98;;
29092;SDS011;16167;48.768;14.984;2023-02-14T11:24:15;24.38;;;13.20;;
29092;SDS011;16167;48.768;14.984;2023-02-14T11:26:45;25.65;;;13.95;;
29092;SDS011;16167;48.768;14.984;2023-02-14T11:29:24;26.70;;;15.32;;
29092;SDS011;16167;48.768;14.984;2023-02-14T11:31:54;25.73;;;15.02;;
29092;SDS011;16167;48.768;14.984;2023-02-14T11:34:33;25.20;;;14.25;;
29092;SDS011;16167;48.768;14.984;2023-02-14T11:37:15;27.17;;;14.52;;
29092;SDS011;16167;48.768;14.984;2023-02-14T11:39:51;25.10;;;15.52;;
29092;SDS011;16167;48.768;14.984;2023-02-14T11:42:31;25.60;;;14.65;;
29092;SDS011;16167;48.768;14.984;2023-02-14T11:45:02;25.52;;;15.50;;
29092;SDS011;16167;48.768;14.984;2023-02-14T11:50:03;28.77;;;16.17;;
29092;SDS011;16167;48.768;14.984;2023-02-14T11:52:38;25.30;;;15.18;;
29092;SDS011;16167;48.768;14.984;2023-02-14T11:55:20;29.63;;;15.68;;
29092;SDS011;16167;48.768;14.984;2023-02-14T11:57:52;27.15;;;14.82;;
29092;SDS011;16167;48.768;14.984;2023-02-14T12:00:21;25.45;;;15.75;;
29092;SDS011;16167;48.768;14.984;2023-02-14T12:02:52;28.27;;;15.77;;
29092;SDS011;16167;48.768;14.984;2023-02-14T12:05:22;24.00;;;14.43;;
29092;SDS011;16167;48.768;14.984;2023-02-14T12:07:55;24.90;;;14.20;;
29092;SDS011;16167;48.768;14.984;2023-02-14T12:10:26;25.63;;;15.48;;
29092;SDS011;16167;48.768;14.984;2023-02-14T12:12:59;26.85;;;16.13;;
29092;SDS011;16167;48.768;14.984;2023-02-14T12:15:30;23.55;;;14.15;;
29092;SDS011;16167;48.768;14.984;2023-02-14T12:21:05;25.75;;;14.07;;
29092;SDS011;16167;48.768;14.984;2023-02-14T12:23:46;28.13;;;15.35;;
29092;SDS011;16167;48.768;14.984;2023-02-14T12:26:23;25.00;;;14.73;;
29092;SDS011;16167;48.768;14.984;2023-02-14T12:28:56;25.05;;;14.68;;
29092;SDS011;16167;48.768;14.984;2023-02-14T12:31:30;22.80;;;13.73;;
29092;SDS011;16167;48.768;14.984;2023-02-14T12:33:59;23.60;;;14.20;;
29092;SDS011;16167;48.768;14.984;2023-02-14T12:36:32;23.50;;;14.07;;
29092;SDS011;16167;48.768;14.984;2023-02-14T12:39:15;24.40;;;14.13;;
29092;SDS011;16167;48.768;14.984;2023-02-14T12:41:53;15.48;;;9.40;;
29092;SDS011;16167;48.768;14.984;2023-02-14T12:44:30;23.15;;;15.30;;
29092;SDS011;16167;48.768;14.984;2023-02-14T12:47:08;26.40;;;14.25;;
29092;SDS011;16167;48.768;14.984;2023-02-14T12:55:35;35.03;;;18.55;;
29092;SDS011;16167;48.768;14.984;2023-02-14T12:58:14;31.38;;;17.55;;
29092;SDS011;16167;48.768;14.984;2023-02-14T13:00:54;26.83;;;15.95;;
29092;SDS011;16167;48.768;14.984;2023-02-14T13:03:37;23.83;;;14.73;;
29092;SDS011;16167;48.768;14.984;2023-02-14T13:06:17;29.48;;;16.05;;
29092;SDS011;16167;48.768;14.984;2023-02-14T13:08:54;24.55;;;15.70;;
29092;SDS011;16167;48.768;14.984;2023-02-14T13:11:35;27.23;;;16.20;;
29092;SDS011;16167;48.768;14.984;2023-02-14T13:14:11;27.42;;;16.23;;
29092;SDS011;16167;48.768;14.984;2023-02-14T13:16:50;27.17;;;15.90;;
29092;SDS011;16167;48.768;14.984;2023-02-14T13:19:25;28.23;;;15.65;;
29092;SDS011;16167;48.768;14.984;2023-02-14T13:24:31;32.72;;;16.83;;
29092;SDS011;16167;48.768;14.984;2023-02-14T13:27:07;29.77;;;17.30;;
29092;SDS011;16167;48.768;14.984;2023-02-14T13:29:42;25.58;;;16.15;;
29092;SDS011;16167;48.768;14.984;2023-02-14T13:32:15;30.30;;;15.77;;
29092;SDS011;16167;48.768;14.984;2023-02-14T13:34:48;28.08;;;16.42;;
29092;SDS011;16167;48.768;14.984;2023-02-14T13:37:17;28.63;;;16.33;;
29092;SDS011;16167;48.768;14.984;2023-02-14T13:39:49;29.85;;;17.63;;
29092;SDS011;16167;48.768;14.984;2023-02-14T13:48:19;27.75;;;16.45;;
29092;SDS011;16167;48.768;14.984;2023-02-14T13:50:50;27.73;;;15.88;;
29092;SDS011;16167;48.768;14.984;2023-02-14T13:53:28;26.25;;;15.80;;
29092;SDS011;16167;48.768;14.984;2023-02-14T13:56:02;26.13;;;15.95;;
29092;SDS011;16167;48.768;14.984;2023-02-14T13:58:33;26.33;;;15.10;;
29092;SDS011;16167;48.768;14.984;2023-02-14T14:03:56;27.70;;;15.40;;
29092;SDS011;16167;48.768;14.984;2023-02-14T14:06:25;26.75;;;15.23;;
29092;SDS011;16167;48.768;14.984;2023-02-14T14:08:54;26.90;;;15.93;;
29092;SDS011;16167;48.768;14.984;2023-02-14T14:14:29;26.20;;;15.48;;
29092;SDS011;16167;48.768;14.984;2023-02-14T14:17:03;26.95;;;15.15;;
29092;SDS011;16167;48.768;14.984;2023-02-14T14:19:46;24.52;;;14.23;;
29092;SDS011;16167;48.768;14.984;2023-02-14T14:22:15;28.63;;;16.20;;
29092;SDS011;16167;48.768;14.984;2023-02-14T14:27:21;28.85;;;15.45;;
29092;SDS011;16167;48.768;14.984;2023-02-14T14:29:54;29.23;;;17.13;;
29092;SDS011;16167;48.768;14.984;2023-02-14T14:32:25;27.83;;;16.85;;
29092;SDS011;16167;48.768;14.984;2023-02-14T14:34:56;27.85;;;16.55;;
29092;SDS011;16167;48.768;14.984;2023-02-14T14:37:26;29.73;;;16.23;;
29092;SDS011;16167;48.768;14.984;2023-02-14T14:39:56;31.80;;;18.00;;
29092;SDS011;16167;48.768;14.984;2023-02-14T14:42:27;27.25;;;16.65;;
29092;SDS011;16167;48.768;14.984;2023-02-14T14:44:59;27.90;;;16.23;;
29092;SDS011;16167;48.768;14.984;2023-02-14T14:47:31;35.67;;;17.80;;
29092;SDS011;16167;48.768;14.984;2023-02-14T14:50:08;29.50;;;16.73;;
29092;SDS011;16167;48.768;14.984;2023-02-14T14:52:42;26.35;;;15.30;;
29092;SDS011;16167;48.768;14.984;2023-02-14T14:55:18;25.45;;;15.07;;
29092;SDS011;16167;48.768;14.984;2023-02-14T14:57:49;21.85;;;15.25;;
29092;SDS011;16167;48.768;14.984;2023-02-14T15:02:54;23.10;;;14.23;;
29092;SDS011;16167;48.768;14.984;2023-02-14T15:05:28;24.08;;;14.52;;
29092;SDS011;16167;48.768;14.984;2023-02-14T15:08:11;24.42;;;15.38;;
29092;SDS011;16167;48.768;14.984;2023-02-14T15:10:40;25.55;;;14.73;;
29092;SDS011;16167;48.768;14.984;2023-02-14T15:13:10;29.08;;;16.02;;
29092;SDS011;16167;48.768;14.984;2023-02-14T15:15:59;25.67;;;15.55;;
29092;SDS011;16167;48.768;14.984;2023-02-14T15:18:29;24.85;;;15.02;;
29092;SDS011;16167;48.768;14.984;2023-02-14T15:20:57;27.08;;;15.30;;
29092;SDS011;16167;48.768;14.984;2023-02-14T15:23:26;26.80;;;16.02;;
29092;SDS011;16167;48.768;14.984;2023-02-14T15:25:54;29.55;;;16.50;;
29092;SDS011;16167;48.768;14.984;2023-02-14T15:28:26;25.30;;;15.95;;
29092;SDS011;16167;48.768;14.984;2023-02-14T15:30:59;27.15;;;15.75;;
29092;SDS011;16167;48.768;14.984;2023-02-14T15:33:29;30.30;;;17.42;;
29092;SDS011;16167;48.768;14.984;2023-02-14T15:36:00;30.05;;;16.27;;
29092;SDS011;16167;48.768;14.984;2023-02-14T15:38:30;31.00;;;17.38;;
29092;SDS011;16167;48.768;14.984;2023-02-14T15:40:59;30.77;;;17.83;;
29092;SDS011;16167;48.768;14.984;2023-02-14T15:43:29;31.08;;;17.50;;
29092;SDS011;16167;48.768;14.984;2023-02-14T15:51:18;27.80;;;15.30;;
29092;SDS011;16167;48.768;14.984;2023-02-14T15:53:49;30.10;;;17.33;;
29092;SDS011;16167;48.768;14.984;2023-02-14T15:56:20;26.33;;;15.55;;
29092;SDS011;16167;48.768;14.984;2023-02-14T15:58:54;29.77;;;15.73;;